Home   Weather   Germany   Dreieich   Past weeks
Flag for Germany

Past Weather in Dreieich, Hesse, Germany — Yesterday and Last 2 Weeks

Currently: 52 °F. Clear. (Weather station: Frankfurt-M-Flughafen Airport, Germany). See more current weather

Past Weather in Dreieich — Graph

°F

Dreieich Temperature Yesterday

Maximum temperature yesterday: 50 °F (at 1:50 pm)
Minimum temperature yesterday: 30 °F (at 4:50 am)
Average temperature yesterday: 41 °F

High & Low Weather Summary for the Past Weeks

 TemperatureHumidityPressure
High59 °F (Mar 2, 3:20 pm)100% (Feb 16, 8:20 pm)30.54 "Hg (Feb 16, 8:20 pm)
Low28 °F (Feb 29, 6:20 am)48% (Mar 2, 3:20 pm)29.15 "Hg (Feb 22, 8:20 pm)
Average46 °F78%29.91 "Hg
* Reported Feb 16 8:20 pm — Mar 2 8:50 pm, Dreieich. Weather by CustomWeather, © 2024

Note: Actual official high and low records may vary slightly from our data, if they occured in-between our weather recording intervals... More about our weather records

Dreieich Weather History for the Previous 24 Hours

Scroll right to see more
 ConditionsComfort  
Time TempWeatherWind HumidityBarometerVisibility
8:50 pm
Sat, Mar 2
52 °FClear.10 mph67%29.56 "Hg10 mi
8:20 pm52 °FClear.9 mph62%29.56 "Hg10 mi
7:50 pm54 °FClear.7 mph58%29.59 "Hg10 mi
7:20 pm52 °FClear.9 mph67%29.59 "Hg10 mi
6:50 pm54 °FClear.7 mph63%29.59 "Hg10 mi
6:20 pm55 °FClear.7 mph55%29.59 "Hg10 mi
5:50 pm55 °FSunny.7 mph55%29.59 "Hg10 mi
5:20 pm57 °FSunny.7 mph51%29.59 "Hg10 mi
4:50 pm59 °FPassing clouds.6 mph51%29.59 "HgN/A
4:20 pm59 °FPassing clouds.6 mph51%29.59 "HgN/A
3:20 pm59 °FPassing clouds.2 mph48%29.62 "HgN/A
2:20 pm57 °FPassing clouds.5 mph51%29.62 "HgN/A
1:20 pm55 °FPassing clouds.3 mph55%29.65 "HgN/A
12:50 pm54 °FPassing clouds.5 mph58%29.65 "HgN/A
12:20 pm52 °FPassing clouds.3 mph62%29.65 "HgN/A
11:50 am50 °FSunny.3 mph67%29.68 "Hg10 mi
11:20 am48 °FPassing clouds.5 mph71%29.68 "HgN/A
10:50 am46 °FSunny.6 mph76%29.68 "Hg10 mi
10:20 am45 °FSunny.6 mph81%29.68 "Hg10 mi
9:50 am45 °FSunny.3 mph81%29.68 "Hg10 mi
9:20 am43 °FPassing clouds.5 mph87%29.68 "HgN/A
8:50 am41 °FPassing clouds.7 mph93%29.68 "HgN/A
8:20 am37 °FPassing clouds.7 mph93%29.68 "HgN/A
7:50 am37 °FPartly sunny.5 mph93%29.65 "HgN/A
7:20 am37 °FPartly sunny.6 mph93%29.68 "HgN/A
6:50 am36 °FClear.1 mph93%29.65 "Hg10 mi
6:20 am36 °FClear.2 mph93%29.65 "Hg10 mi
5:50 am37 °FClear.2 mph93%29.65 "Hg10 mi
5:20 am36 °FPassing clouds.5 mph93%29.65 "HgN/A
4:50 am36 °FClear.3 mph100%29.65 "Hg10 mi
4:20 am36 °FClear.3 mph93%29.65 "Hg10 mi
3:20 am36 °FClear.7 mph93%29.65 "Hg10 mi
2:50 am36 °FClear.5 mph100%29.65 "Hg10 mi
2:20 am36 °FClear.1 mph100%29.68 "Hg10 mi
1:50 am36 °FPassing clouds.3 mph93%29.68 "HgN/A
1:20 am37 °FClear.5 mph93%29.65 "Hg10 mi
12:50 am37 °FClear.2 mph93%29.68 "Hg10 mi
12:20 am37 °FClear.1 mph93%29.68 "Hg10 mi
11:50 pm
Fri, Mar 1
37 °FClear.1 mph93%29.68 "Hg10 mi
11:20 pm37 °FPassing clouds.2 mph93%29.68 "HgN/A
10:50 pm39 °FPassing clouds.2 mph87%29.68 "HgN/A
10:20 pm41 °FClear.5 mph81%29.68 "Hg10 mi
Weather by CustomWeather, © 2024

See weather overview